Time;durP1;ratioP1;P1;durP2;ratioP2;P2;SDS_P1;SDS_P2;PMS_P1;PMS_P2;Temp;Humidity;BMP_temperature;BMP_pressure;BME280_temperature;BME280_humidity;BME280_pressure;Samples;Min_cycle;Max_cycle;Signal;HPM_P1;HPM_P2
2023/09/14 00:00:28;;;;;;;0.90;0.90;;;;;;;11.87;100.00;101041.44;4994886;28;20204;-79
2023/09/14 00:02:54;;;;;;;3.43;2.03;;;;;;;11.90;100.00;101049.03;4995109;28;20304;-80
2023/09/14 00:05:19;;;;;;;1.43;0.93;;;;;;;11.93;100.00;101050.34;4996901;28;20192;-80
2023/09/14 00:07:44;;;;;;;6.13;1.33;;;;;;;11.86;100.00;101048.00;4996480;28;20706;-79
2023/09/14 00:10:10;;;;;;;0.70;0.70;;;;;;;11.90;100.00;101043.56;4996338;28;20181;-79
2023/09/14 00:12:35;;;;;;;0.30;0.13;;;;;;;11.97;100.00;101043.13;4994676;28;20769;-79
2023/09/14 00:15:00;;;;;;;0.77;0.73;;;;;;;11.99;100.00;101036.22;4995069;28;20197;-79
2023/09/14 00:17:25;;;;;;;2.20;1.23;;;;;;;11.96;100.00;101031.34;4996296;28;20204;-80
2023/09/14 00:19:51;;;;;;;4.47;0.57;;;;;;;11.98;100.00;101042.00;4995470;28;20185;-79
2023/09/14 00:22:16;;;;;;;10.43;0.73;;;;;;;12.01;100.00;101031.28;4996440;28;20241;-79
2023/09/14 00:24:42;;;;;;;0.27;0.20;;;;;;;11.97;100.00;101032.97;4994412;28;20185;-79
2023/09/14 00:27:07;;;;;;;0.10;0.10;;;;;;;11.94;100.00;101030.84;4995903;28;20192;-79
2023/09/14 00:29:32;;;;;;;0.30;0.30;;;;;;;11.91;100.00;101026.00;4995530;28;20203;-80
2023/09/14 00:31:58;;;;;;;0.10;0.10;;;;;;;11.96;100.00;101034.09;4994409;28;20698;-79
2023/09/14 00:34:23;;;;;;;1.67;1.57;;;;;;;11.87;100.00;101025.81;4995466;28;20693;-79
2023/09/14 00:36:48;;;;;;;0.63;0.63;;;;;;;11.84;100.00;101023.66;4994314;28;20224;-79
2023/09/14 00:39:14;;;;;;;0.97;0.60;;;;;;;11.87;100.00;101031.28;4993815;28;20211;-80
2023/09/14 00:41:40;;;;;;;0.43;0.40;;;;;;;11.72;100.00;101015.16;4995082;28;20209;-78
2023/09/14 00:44:05;;;;;;;3.83;0.47;;;;;;;11.66;100.00;101021.00;4995293;28;20212;-80
2023/09/14 00:46:31;;;;;;;17.43;1.87;;;;;;;11.59;100.00;101014.03;4994954;28;20192;-79
2023/09/14 00:48:57;;;;;;;3.10;2.00;;;;;;;11.54;100.00;101018.78;4994243;28;20235;-79
2023/09/14 00:51:23;;;;;;;8.87;0.30;;;;;;;11.53;100.00;101017.16;4995324;28;20203;-79
2023/09/14 00:53:50;;;;;;;0.47;0.47;;;;;;;11.49;100.00;101025.16;4995067;28;20590;-80
2023/09/14 00:56:17;;;;;;;0.13;0.10;;;;;;;11.48;100.00;101028.22;4993794;28;20181;-79
2023/09/14 00:58:42;;;;;;;0.80;0.80;;;;;;;11.55;100.00;101034.06;4994538;28;20181;-78
2023/09/14 01:01:08;;;;;;;0.77;0.47;;;;;;;11.50;100.00;101029.53;4995049;28;20263;-80
2023/09/14 01:03:33;;;;;;;0.00;0.00;;;;;;;11.51;100.00;101030.34;4993138;28;20211;-80
2023/09/14 01:05:59;;;;;;;2.50;1.83;;;;;;;11.48;100.00;101023.53;4992939;28;20721;-80
2023/09/14 01:08:25;;;;;;;7.23;1.50;;;;;;;11.48;100.00;101023.53;4994386;28;20185;-78
2023/09/14 01:10:50;;;;;;;0.33;0.33;;;;;;;11.45;100.00;101021.41;4996031;28;20617;-79
2023/09/14 01:13:44;;;;;;;0.43;0.43;;;;;;;11.52;100.00;101029.22;4992579;28;20209;-79
2023/09/14 01:16:18;;;;;;;0.40;0.40;;;;;;;11.49;100.00;101016.94;4992362;28;20280;-78
2023/09/14 01:19:03;;;;;;;0.00;0.00;;;;;;;11.51;100.00;101024.84;4992814;28;20239;-79
2023/09/14 01:21:56;;;;;;;0.00;0.00;;;;;;;11.51;100.00;101024.84;4993578;28;20706;-78
2023/09/14 01:24:46;;;;;;;1.20;1.20;;;;;;;11.48;100.00;101029.00;4993379;28;20582;-79
2023/09/14 01:27:12;;;;;;;8.33;2.33;;;;;;;11.31;100.00;101023.31;4993499;28;20186;-78
2023/09/14 01:29:38;;;;;;;2.93;1.13;;;;;;;11.32;100.00;101033.97;4991512;28;20188;-78
2023/09/14 01:32:04;;;;;;;0.00;0.00;;;;;;;11.33;100.00;101030.13;4992030;28;20181;-78
2023/09/14 01:34:30;;;;;;;0.33;0.33;;;;;;;11.36;100.00;101038.81;4993220;28;20594;-77
2023/09/14 01:36:58;;;;;;;1.00;0.17;;;;;;;11.35;100.00;101039.94;4991827;28;20193;-78
2023/09/14 01:39:25;;;;;;;0.53;0.53;;;;;;;11.35;100.00;101046.22;4992557;28;20257;-77
2023/09/14 01:41:54;;;;;;;2.60;0.37;;;;;;;11.23;100.00;101041.22;4991832;28;20201;-79
2023/09/14 01:44:22;;;;;;;0.93;0.93;;;;;;;11.16;100.00;101040.81;4992969;28;20201;-77
2023/09/14 01:46:48;;;;;;;0.63;0.63;;;;;;;11.20;100.00;101047.31;4992721;28;20279;-78
2023/09/14 01:49:13;;;;;;;1.47;0.40;;;;;;;11.18;100.00;101046.81;4992571;28;20538;-78
2023/09/14 01:51:39;;;;;;;0.10;0.10;;;;;;;11.22;100.00;101038.81;4991196;28;20220;-78
2023/09/14 01:54:05;;;;;;;4.03;0.60;;;;;;;11.17;100.00;101045.19;4992741;28;20204;-78
2023/09/14 01:56:30;;;;;;;0.23;0.23;;;;;;;11.06;100.00;101032.78;4992740;28;20569;-79
2023/09/14 01:58:55;;;;;;;0.73;0.63;;;;;;;10.98;100.00;101036.19;4992473;28;20201;-78
2023/09/14 02:01:21;;;;;;;0.40;0.40;;;;;;;10.86;100.00;101036.69;4992803;28;20231;-78
2023/09/14 02:03:46;;;;;;;0.20;0.20;;;;;;;10.82;100.00;101037.56;4992616;28;20209;-78
2023/09/14 02:06:11;;;;;;;1.30;0.60;;;;;;;10.82;100.00;101041.13;4992977;28;20189;-79
2023/09/14 02:08:37;;;;;;;0.30;0.30;;;;;;;10.88;100.00;101048.13;4992742;28;20212;-79
2023/09/14 02:11:03;;;;;;;1.10;1.10;;;;;;;10.85;100.00;101050.63;4992461;28;20248;-79
2023/09/14 02:13:28;;;;;;;0.40;0.40;;;;;;;10.80;100.00;101051.53;4992621;28;20204;-78
2023/09/14 02:15:53;;;;;;;1.33;1.33;;;;;;;10.80;100.00;101061.66;4991726;28;20189;-79
2023/09/14 02:18:19;;;;;;;0.17;0.17;;;;;;;10.73;100.00;101062.84;4991690;28;20558;-79
2023/09/14 02:20:44;;;;;;;1.70;1.60;;;;;;;10.81;100.00;101072.28;4990997;28;20597;-78
2023/09/14 02:23:09;;;;;;;0.43;0.30;;;;;;;10.72;100.00;101068.63;4992431;28;20335;-79
2023/09/14 02:25:35;;;;;;;0.50;0.50;;;;;;;10.68;100.00;101070.31;4991397;28;20198;-80
2023/09/14 02:28:00;;;;;;;0.10;0.10;;;;;;;10.68;100.00;101065.66;4992747;28;20704;-78
2023/09/14 02:30:26;;;;;;;0.20;0.20;;;;;;;10.66;100.00;101072.53;4992011;28;20591;-79
2023/09/14 02:32:52;;;;;;;0.30;0.17;;;;;;;10.65;100.00;101071.72;4991005;28;20228;-79
2023/09/14 02:35:17;;;;;;;15.70;0.90;;;;;;;10.63;100.00;101073.94;4991278;28;20189;-80
2023/09/14 02:37:43;;;;;;;0.60;0.43;;;;;;;10.70;100.00;101079.84;4991034;28;20276;-79
2023/09/14 02:40:09;;;;;;;0.00;0.00;;;;;;;10.65;100.00;101073.63;4990497;28;20285;-79
2023/09/14 02:42:37;;;;;;;0.97;0.50;;;;;;;10.67;100.00;101077.69;4992269;28;20205;-78
2023/09/14 02:45:02;;;;;;;4.93;0.70;;;;;;;10.78;100.00;101080.28;4990963;28;20196;-80
2023/09/14 02:47:28;;;;;;;0.93;0.93;;;;;;;10.75;100.00;101075.41;4990964;28;20570;-79
2023/09/14 02:49:53;;;;;;;0.67;0.47;;;;;;;10.69;100.00;101078.22;4991648;28;20609;-79
2023/09/14 02:52:18;;;;;;;0.13;0.13;;;;;;;10.69;100.00;101077.38;4992132;28;20189;-78
2023/09/14 02:54:44;;;;;;;9.47;1.83;;;;;;;10.61;100.00;101070.69;4990884;28;20284;-79
2023/09/14 02:57:09;;;;;;;0.20;0.20;;;;;;;10.60;100.00;101084.66;4992210;28;20255;-79
2023/09/14 02:59:34;;;;;;;0.10;0.10;;;;;;;10.70;100.00;101088.06;4991508;28;20259;-79
2023/09/14 03:02:00;;;;;;;1.43;1.37;;;;;;;10.67;100.00;101090.53;4991671;28;20211;-79
2023/09/14 03:04:26;;;;;;;0.03;0.03;;;;;;;10.65;100.00;101088.09;4993891;28;20196;-79
2023/09/14 03:06:51;;;;;;;0.10;0.10;;;;;;;10.79;100.00;101095.56;4995883;28;20635;-79
2023/09/14 03:09:16;;;;;;;0.30;0.30;;;;;;;10.64;100.00;101082.94;4993949;28;20192;-78
2023/09/14 03:11:42;;;;;;;0.33;0.20;;;;;;;10.64;100.00;101081.03;4995813;28;20239;-79
2023/09/14 03:14:07;;;;;;;0.20;0.20;;;;;;;10.67;100.00;101076.88;4995621;28;20299;-79
2023/09/14 03:16:32;;;;;;;0.37;0.37;;;;;;;10.57;100.00;101072.41;4994594;28;20272;-79
2023/09/14 03:18:57;;;;;;;0.03;0.03;;;;;;;10.56;100.00;101073.50;4993942;28;20320;-79
2023/09/14 03:21:27;;;;;;;0.30;0.30;;;;;;;10.56;100.00;101076.25;4995726;28;20576;-79
2023/09/14 03:23:53;;;;;;;0.20;0.17;;;;;;;10.56;100.00;101073.50;4994084;28;20208;-78
2023/09/14 03:26:18;;;;;;;0.20;0.20;;;;;;;10.50;100.00;101073.88;4994402;28;20315;-79
2023/09/14 03:28:45;;;;;;;0.43;0.43;;;;;;;10.50;100.00;101073.88;4994966;28;20787;-78
2023/09/14 03:31:11;;;;;;;0.00;0.00;;;;;;;10.50;100.00;101082.88;4994276;28;20706;-79
2023/09/14 03:33:37;;;;;;;0.33;0.33;;;;;;;10.47;100.00;101079.91;4993853;28;20213;-78
2023/09/14 03:36:03;;;;;;;0.10;0.10;;;;;;;10.44;100.00;101086.78;4993966;28;20189;-79
2023/09/14 03:38:29;;;;;;;0.70;0.70;;;;;;;10.40;100.00;101092.00;4995210;28;20192;-78
2023/09/14 03:40:54;;;;;;;0.00;0.00;;;;;;;10.48;100.00;101101.47;4993494;28;20212;-79
2023/09/14 03:43:20;;;;;;;0.20;0.20;;;;;;;10.48;100.00;101109.69;4995167;28;20227;-80
2023/09/14 03:45:45;;;;;;;0.53;0.53;;;;;;;10.50;100.00;101107.47;4993963;28;20677;-79
2023/09/14 03:48:11;;;;;;;1.57;1.47;;;;;;;10.53;100.00;101106.06;5000433;28;20189;-79
2023/09/14 03:50:36;;;;;;;7.63;0.80;;;;;;;10.51;100.00;101109.09;4999246;28;20197;-78
2023/09/14 03:53:02;;;;;;;0.43;0.43;;;;;;;10.47;100.00;101104.50;4998785;28;20568;-80
2023/09/14 03:55:29;;;;;;;3.10;0.67;;;;;;;10.56;100.00;101109.03;4999860;28;20189;-80
2023/09/14 03:57:54;;;;;;;0.97;0.97;;;;;;;10.53;100.00;101106.88;4999157;28;20647;-80
2023/09/14 04:00:20;;;;;;;0.30;0.30;;;;;;;10.48;100.00;101104.22;4998668;28;20262;-80
2023/09/14 04:02:45;;;;;;;0.00;0.00;;;;;;;10.37;100.00;101103.53;4998432;28;20291;-79
2023/09/14 04:05:15;;;;;;;0.27;0.27;;;;;;;10.39;100.00;101111.44;4999755;28;20195;-79
2023/09/14 04:07:41;;;;;;;2.53;0.63;;;;;;;10.33;100.00;101109.88;4999613;28;20640;-80
2023/09/14 04:10:10;;;;;;;1.27;1.17;;;;;;;10.30;100.00;101110.47;4998831;28;20189;-80
2023/09/14 04:12:39;;;;;;;0.10;0.10;;;;;;;10.32;100.00;101114.53;4999199;28;20201;-80
2023/09/14 04:15:05;;;;;;;0.60;0.60;;;;;;;10.33;100.00;101116.16;4999116;28;20239;-80
2023/09/14 04:17:30;;;;;;;0.33;0.30;;;;;;;10.35;100.00;101130.31;4998267;28;20679;-80
2023/09/14 04:19:56;;;;;;;0.10;0.10;;;;;;;10.32;100.00;101130.91;4997038;28;20201;-81
2023/09/14 04:22:21;;;;;;;0.30;0.30;;;;;;;10.34;100.00;101130.63;4999153;28;20891;-80
2023/09/14 04:24:46;;;;;;;0.43;0.43;;;;;;;10.43;100.00;101132.41;4997549;28;20216;-80
2023/09/14 04:27:11;;;;;;;13.37;0.93;;;;;;;10.48;100.00;101131.53;4995395;28;20189;-80
2023/09/14 04:29:37;;;;;;;1.67;0.87;;;;;;;10.63;100.00;101144.16;4993660;28;20181;-78
2023/09/14 04:32:03;;;;;;;0.00;0.00;;;;;;;10.61;100.00;101136.28;4994138;28;20651;-79
2023/09/14 04:34:28;;;;;;;1.80;0.83;;;;;;;10.64;100.00;101134.88;4994224;28;20556;-78
2023/09/14 04:36:54;;;;;;;0.53;0.53;;;;;;;10.64;100.00;101130.22;4993807;28;20189;-79
2023/09/14 04:39:19;;;;;;;0.10;0.10;;;;;;;10.54;100.00;101124.88;4992071;28;20185;-79
2023/09/14 04:41:44;;;;;;;0.00;0.00;;;;;;;10.54;100.00;101124.06;4993823;28;20249;-80
2023/09/14 04:44:10;;;;;;;4.03;0.97;;;;;;;10.56;100.00;101125.41;4993912;28;20201;-79
2023/09/14 04:46:36;;;;;;;1.40;0.87;;;;;;;10.63;100.00;101128.59;4992669;28;20195;-79
2023/09/14 04:49:01;;;;;;;0.00;0.00;;;;;;;10.64;100.00;101135.69;4991977;28;20185;-79
2023/09/14 04:51:26;;;;;;;7.23;0.67;;;;;;;10.62;100.00;101126.97;4993851;28;20223;-78
2023/09/14 04:53:52;;;;;;;2.30;0.30;;;;;;;10.68;100.00;101135.88;4993637;28;20699;-79
2023/09/14 04:56:19;;;;;;;0.03;0.03;;;;;;;10.70;100.00;101133.66;4992446;28;20189;-78
2023/09/14 04:58:44;;;;;;;0.00;0.00;;;;;;;10.51;100.00;101116.47;4993281;28;20185;-78
2023/09/14 05:01:09;;;;;;;0.20;0.20;;;;;;;10.45;100.00;101126.66;4992364;28;20733;-78
2023/09/14 05:03:35;;;;;;;0.10;0.10;;;;;;;10.48;100.00;101133.44;4993446;28;20679;-79
2023/09/14 05:06:02;;;;;;;0.47;0.20;;;;;;;10.44;100.00;101138.69;4992258;28;20192;-78
2023/09/14 05:08:27;;;;;;;0.00;0.00;;;;;;;10.47;100.00;101134.56;4993466;28;20185;-79
2023/09/14 05:10:53;;;;;;;0.00;0.00;;;;;;;10.56;100.00;101140.97;4993144;28;20192;-79
2023/09/14 05:13:20;;;;;;;0.37;0.37;;;;;;;10.51;100.00;101141.88;4993325;28;20205;-79
2023/09/14 05:15:46;;;;;;;0.00;0.00;;;;;;;10.51;100.00;101144.59;4992168;28;20185;-79
2023/09/14 05:18:11;;;;;;;0.10;0.10;;;;;;;10.46;100.00;101144.69;4993424;28;20215;-80
2023/09/14 05:20:41;;;;;;;1.37;1.27;;;;;;;10.50;100.00;101153.91;4993069;28;20217;-79
2023/09/14 05:23:06;;;;;;;0.10;0.10;;;;;;;10.50;100.00;101151.16;4993908;28;20212;-78
2023/09/14 05:25:31;;;;;;;0.40;0.40;;;;;;;10.44;100.00;101152.34;4991958;28;20189;-79
2023/09/14 05:27:58;;;;;;;1.87;1.80;;;;;;;10.43;100.00;101151.53;4993987;28;20185;-79
2023/09/14 05:30:24;;;;;;;5.20;1.07;;;;;;;10.47;100.00;101149.03;4992098;28;20189;-79
2023/09/14 05:32:50;;;;;;;0.20;0.20;;;;;;;10.55;100.00;101159.28;4993183;28;20216;-80
2023/09/14 05:35:16;;;;;;;0.10;0.10;;;;;;;10.45;100.00;101147.69;4992293;28;20226;-79
2023/09/14 05:37:41;;;;;;;0.30;0.20;;;;;;;10.49;100.00;101157.75;4992451;28;20663;-79
2023/09/14 05:40:09;;;;;;;0.47;0.47;;;;;;;10.47;100.00;101157.22;4992953;28;20201;-79
2023/09/14 05:42:37;;;;;;;9.33;0.40;;;;;;;10.54;100.00;101170.50;4990389;28;20203;-78
2023/09/14 05:45:04;;;;;;;0.73;0.73;;;;;;;10.62;100.00;101178.88;4990132;28;20224;-80
2023/09/14 05:47:29;;;;;;;0.77;0.70;;;;;;;10.72;100.00;101176.03;4991649;28;20267;-79
2023/09/14 05:49:54;;;;;;;0.00;0.00;;;;;;;10.82;100.00;101179.69;4992258;28;20219;-79
2023/09/14 05:52:19;;;;;;;0.00;0.00;;;;;;;10.90;100.00;101184.53;4991428;28;20294;-79
2023/09/14 05:54:45;;;;;;;0.00;0.00;;;;;;;10.89;100.00;101183.72;4992695;28;20188;-78
2023/09/14 05:57:10;;;;;;;0.00;0.00;;;;;;;10.97;100.00;101187.69;4992709;28;20185;-78
2023/09/14 05:59:35;;;;;;;0.00;0.00;;;;;;;11.12;100.00;101192.13;4992010;28;20182;-79
2023/09/14 06:02:01;;;;;;;6.43;0.27;;;;;;;11.22;100.00;101189.25;4983191;28;20300;-79
2023/09/14 06:04:26;;;;;;;0.00;0.00;;;;;;;11.38;100.00;101190.63;4992632;28;20602;-79
2023/09/14 06:06:51;;;;;;;0.20;0.20;;;;;;;11.48;100.00;101185.00;5017175;22;20228;-77
2023/09/14 06:09:17;;;;;;;0.00;0.00;;;;;;;11.60;100.00;101190.81;5013251;28;20184;-77
2023/09/14 06:11:43;;;;;;;0.00;0.00;;;;;;;11.70;100.00;101184.31;5013555;28;20263;-78
2023/09/14 06:14:08;;;;;;;0.00;0.00;;;;;;;11.83;100.00;101191.78;4998055;28;20201;-77
2023/09/14 06:16:33;;;;;;;0.00;0.00;;;;;;;11.91;100.00;101196.59;4993635;28;20189;-77
2023/09/14 06:18:59;;;;;;;0.00;0.00;;;;;;;11.96;100.00;101198.41;4987542;28;20185;-76
2023/09/14 06:21:24;;;;;;;0.00;0.00;;;;;;;12.03;99.43;101192.56;4990940;28;20211;-78
2023/09/14 06:23:50;;;;;;;0.07;0.07;;;;;;;12.01;98.07;101186.56;5001385;28;20205;-78
2023/09/14 06:26:15;;;;;;;0.00;0.00;;;;;;;12.13;97.62;101198.63;5002832;28;20184;-78
2023/09/14 06:28:41;;;;;;;0.20;0.20;;;;;;;12.08;96.78;101190.50;4999861;28;20223;-78
2023/09/14 06:31:06;;;;;;;0.00;0.00;;;;;;;12.15;96.05;101201.91;5018058;28;20181;-78
2023/09/14 06:33:31;;;;;;;0.00;0.00;;;;;;;12.17;95.47;101187.91;5011604;28;20208;-78
2023/09/14 06:35:57;;;;;;;0.00;0.00;;;;;;;12.28;95.30;101194.78;5002470;28;20200;-78
2023/09/14 06:38:22;;;;;;;0.23;0.23;;;;;;;12.39;94.70;101201.69;4999962;28;20764;-74
2023/09/14 06:40:47;;;;;;;0.23;0.23;;;;;;;12.44;94.49;101201.59;5010390;28;20211;-77
2023/09/14 06:43:13;;;;;;;0.20;0.20;;;;;;;12.50;94.28;101191.34;5003376;28;20207;-77
2023/09/14 06:45:38;;;;;;;0.07;0.07;;;;;;;12.55;94.60;101196.69;4999683;28;20381;-78
2023/09/14 06:48:04;;;;;;;0.40;0.30;;;;;;;12.48;93.24;101188.09;5000992;28;20181;-77
2023/09/14 06:50:29;;;;;;;0.10;0.10;;;;;;;12.43;92.66;101188.19;4998010;28;20525;-77
2023/09/14 06:52:55;;;;;;;3.47;0.80;;;;;;;12.42;92.19;101183.81;4999133;28;20239;-77
2023/09/14 06:55:20;;;;;;;6.67;0.70;;;;;;;12.47;91.89;101186.47;5028374;23;20224;-79
2023/09/14 06:57:46;;;;;;;0.90;0.90;;;;;;;12.47;91.38;101184.53;5015311;28;20184;-78
2023/09/14 07:00:16;;;;;;;0.20;0.20;;;;;;;12.48;90.81;101185.34;5014773;28;20722;-79
2023/09/14 07:02:44;;;;;;;0.10;0.10;;;;;;;12.55;91.30;101188.47;5011441;28;20338;-79
2023/09/14 07:05:10;;;;;;;0.10;0.10;;;;;;;12.52;91.67;101184.44;4991149;28;20197;-79
2023/09/14 07:07:37;;;;;;;0.70;0.70;;;;;;;12.49;92.76;101182.31;4979825;28;20185;-79
2023/09/14 07:10:02;;;;;;;0.10;0.10;;;;;;;12.50;93.90;101185.84;4989976;28;20296;-78
2023/09/14 07:12:28;;;;;;;3.47;1.23;;;;;;;12.53;94.26;101190.72;4982865;28;20708;-79
2023/09/14 07:14:53;;;;;;;1.20;0.67;;;;;;;12.55;95.19;101196.69;4977741;28;20190;-78
2023/09/14 07:17:18;;;;;;;0.20;0.20;;;;;;;12.56;96.06;101192.03;4979409;28;20191;-79
2023/09/14 07:19:44;;;;;;;0.50;0.50;;;;;;;12.67;97.06;101204.41;4991617;28;20707;-79
2023/09/14 07:22:09;;;;;;;0.03;0.00;;;;;;;12.90;98.05;101217.06;4984323;28;20214;-79
2023/09/14 07:24:34;;;;;;;0.10;0.10;;;;;;;12.90;99.03;101214.34;4978028;28;20277;-80
2023/09/14 07:26:59;;;;;;;0.07;0.07;;;;;;;12.87;98.07;101203.97;4986038;28;20185;-79
2023/09/14 07:29:26;;;;;;;0.00;0.00;;;;;;;12.93;96.29;101197.25;4986137;28;20185;-78
2023/09/14 07:31:57;;;;;;;0.20;0.20;;;;;;;13.06;96.46;101201.09;4976838;28;20224;-79
2023/09/14 07:34:23;;;;;;;0.30;0.30;;;;;;;13.16;97.04;101213.75;4980252;28;20625;-78
2023/09/14 07:36:48;;;;;;;2.17;0.93;;;;;;;13.18;97.48;101208.78;4980295;28;20216;-79
2023/09/14 07:39:13;;;;;;;8.47;1.37;;;;;;;13.11;96.17;101201.75;4983505;28;20208;-79
2023/09/14 07:41:39;;;;;;;0.20;0.20;;;;;;;13.18;95.38;101211.53;4981138;28;20699;-78
2023/09/14 07:44:04;;;;;;;0.60;0.60;;;;;;;13.27;94.25;101212.41;4985546;28;20240;-78
2023/09/14 07:46:31;;;;;;;4.10;1.17;;;;;;;13.32;93.34;101213.13;4986212;28;20333;-77
2023/09/14 07:48:56;;;;;;;2.10;1.43;;;;;;;13.31;92.55;101206.00;4983587;28;20190;-78
2023/09/14 07:51:21;;;;;;;0.73;0.73;;;;;;;13.32;91.30;101210.38;4975419;28;20182;-77
2023/09/14 07:53:47;;;;;;;0.83;0.80;;;;;;;13.36;90.42;101202.34;4973673;28;20225;-78
2023/09/14 07:56:13;;;;;;;1.80;0.47;;;;;;;13.45;90.62;101213.34;4975236;28;20190;-78
2023/09/14 07:58:38;;;;;;;0.27;0.27;;;;;;;13.63;90.67;101226.91;4973590;28;20232;-78
2023/09/14 08:01:03;;;;;;;0.03;0.03;;;;;;;13.73;90.01;101220.34;4973628;28;20237;-78
2023/09/14 08:03:30;;;;;;;0.10;0.10;;;;;;;13.83;89.41;101228.31;4974211;28;20816;-79
2023/09/14 08:05:55;;;;;;;0.30;0.30;;;;;;;13.91;89.11;101218.53;4975354;28;20192;-79
2023/09/14 08:08:20;;;;;;;0.77;0.40;;;;;;;14.00;88.18;101230.34;4975576;28;20185;-78
2023/09/14 08:10:50;;;;;;;0.20;0.20;;;;;;;14.07;86.76;101224.44;4975059;28;20189;-78
2023/09/14 08:13:15;;;;;;;0.00;0.00;;;;;;;14.15;86.48;101229.94;4975237;28;20208;-78
2023/09/14 08:15:41;;;;;;;0.40;0.40;;;;;;;14.29;86.93;101222.41;4975207;28;20181;-78
2023/09/14 08:18:06;;;;;;;0.00;0.00;;;;;;;14.33;85.77;101228.13;4974228;28;20600;-78
2023/09/14 08:20:32;;;;;;;10.27;0.63;;;;;;;14.31;85.14;101227.59;4974907;28;20213;-78
2023/09/14 08:22:57;;;;;;;0.10;0.10;;;;;;;14.41;84.92;101232.00;4973748;28;20206;-78
2023/09/14 08:25:22;;;;;;;0.00;0.00;;;;;;;14.59;84.50;101233.72;4975454;28;20186;-78
2023/09/14 08:27:48;;;;;;;0.40;0.40;;;;;;;14.59;85.53;101230.97;4975078;28;20277;-78
2023/09/14 08:30:15;;;;;;;0.00;0.00;;;;;;;14.65;83.88;101235.19;4974907;28;20217;-78
2023/09/14 08:32:40;;;;;;;0.27;0.27;;;;;;;14.74;84.20;101238.78;4974145;28;20292;-78
2023/09/14 08:35:25;;;;;;;0.13;0.13;;;;;;;14.91;84.24;101251.78;4974125;28;20931;-78
2023/09/14 08:37:52;;;;;;;0.37;0.33;;;;;;;14.91;83.58;101240.78;4975172;28;20681;-78
2023/09/14 08:40:18;;;;;;;0.27;0.27;;;;;;;15.05;83.53;101252.47;4978202;28;20189;-78
2023/09/14 08:42:54;;;;;;;0.10;0.10;;;;;;;15.10;82.53;101254.22;4981979;28;20205;-78
2023/09/14 08:45:23;;;;;;;2.73;0.47;;;;;;;15.08;82.91;101251.81;4974862;28;20229;-78
2023/09/14 08:47:50;;;;;;;0.27;0.27;;;;;;;14.89;81.68;101237.50;4973657;28;20194;-79
2023/09/14 08:50:17;;;;;;;7.30;0.87;;;;;;;15.02;81.28;101250.31;4974401;28;20660;-78
2023/09/14 08:52:44;;;;;;;3.97;0.63;;;;;;;15.15;80.71;101254.88;4982566;28;20208;-78
2023/09/14 08:55:11;;;;;;;4.23;1.30;;;;;;;15.35;80.84;101263.66;4973258;28;20869;-78
2023/09/14 08:57:39;;;;;;;0.00;0.00;;;;;;;15.58;80.96;101270.59;4974620;28;20204;-79
2023/09/14 09:00:17;;;;;;;0.00;0.00;;;;;;;15.65;78.76;101242.63;4973621;28;20186;-79
2023/09/14 09:02:48;;;;;;;0.00;0.00;;;;;;;15.72;77.79;101251.19;4984507;28;20205;-80
2023/09/14 09:05:15;;;;;;;0.17;0.17;;;;;;;15.65;75.19;101237.09;4977599;28;20186;-81
2023/09/14 09:07:41;;;;;;;0.00;0.00;;;;;;;15.70;73.87;101223.97;4978501;28;20193;-81
2023/09/14 09:10:20;;;;;;;0.30;0.30;;;;;;;15.76;75.43;101244.69;4975576;28;20189;-79
2023/09/14 09:12:46;;;;;;;0.00;0.00;;;;;;;15.79;75.22;101243.25;4977219;28;20217;-78
2023/09/14 09:15:13;;;;;;;0.00;0.00;;;;;;;15.77;75.00;101240.81;4978879;28;20190;-77
2023/09/14 09:17:44;;;;;;;0.00;0.00;;;;;;;15.76;75.78;101241.13;4977017;28;20268;-79
2023/09/14 09:20:14;;;;;;;3.10;0.63;;;;;;;15.69;75.96;101235.31;4978963;28;20217;-79
2023/09/14 09:22:43;;;;;;;0.73;0.60;;;;;;;15.73;75.53;101237.06;4977189;28;20217;-78
2023/09/14 09:25:10;;;;;;;0.20;0.20;;;;;;;15.83;75.77;101243.38;4976599;28;20190;-80
2023/09/14 09:27:35;;;;;;;0.00;0.00;;;;;;;15.90;74.93;101238.97;4975364;28;20189;-81
2023/09/14 09:30:01;;;;;;;0.00;0.00;;;;;;;15.92;73.57;101225.72;4972997;28;20186;-81
2023/09/14 09:32:26;;;;;;;0.10;0.10;;;;;;;15.95;72.53;101214.03;4973338;28;20581;-78
2023/09/14 09:34:51;;;;;;;0.10;0.00;;;;;;;15.92;72.85;101217.44;4973942;28;20182;-82
2023/09/14 09:37:17;;;;;;;0.00;0.00;;;;;;;16.11;73.11;101233.59;4974162;28;20217;-79
2023/09/14 09:39:43;;;;;;;0.00;0.00;;;;;;;16.18;71.52;101224.78;4975754;28;20272;-79
2023/09/14 09:42:12;;;;;;;0.90;0.90;;;;;;;16.30;71.88;101235.94;4975040;28;20209;-85
2023/09/14 09:44:41;;;;;;;1.17;1.07;;;;;;;16.31;71.47;101218.25;4974898;28;20182;-83
2023/09/14 09:47:12;;;;;;;0.00;0.00;;;;;;;16.39;72.05;101222.94;4974002;28;20283;-83
2023/09/14 09:49:39;;;;;;;2.47;1.37;;;;;;;16.60;71.88;101236.78;4972295;28;20656;-83
2023/09/14 09:52:08;;;;;;;0.30;0.30;;;;;;;16.73;68.52;101199.09;4973413;28;20646;-84
2023/09/14 09:54:35;;;;;;;0.77;0.77;;;;;;;16.65;67.70;101187.75;4972580;28;20569;-83
2023/09/14 09:57:03;;;;;;;0.00;0.00;;;;;;;16.43;67.24;101184.47;4972467;28;20182;-83
2023/09/14 09:59:30;;;;;;;0.00;0.00;;;;;;;16.26;68.10;101188.13;4972081;28;20186;-79
2023/09/14 10:01:56;;;;;;;0.00;0.00;;;;;;;16.14;68.17;101183.31;4974825;28;20241;-84
2023/09/14 10:04:26;;;;;;;0.00;0.00;;;;;;;16.25;68.79;101192.03;4974052;28;20216;-78
2023/09/14 10:06:59;;;;;;;0.13;0.13;;;;;;;16.34;67.38;101173.47;4977424;28;20248;-78
2023/09/14 10:09:26;;;;;;;0.53;0.53;;;;;;;16.47;66.22;101182.66;4978918;28;20215;-79
2023/09/14 10:11:52;;;;;;;0.00;0.00;;;;;;;16.79;65.25;101189.50;4975833;28;20181;-79
2023/09/14 10:14:21;;;;;;;0.10;0.10;;;;;;;17.04;65.31;101202.28;4977206;28;20703;-79
2023/09/14 10:16:49;;;;;;;0.00;0.00;;;;;;;16.99;62.88;101166.59;4974767;28;20185;-78
2023/09/14 10:19:15;;;;;;;0.30;0.30;;;;;;;16.76;63.90;101168.06;4981861;28;20186;-78
2023/09/14 10:21:42;;;;;;;0.00;0.00;;;;;;;16.82;64.25;101183.28;4976515;28;20233;-78
2023/09/14 10:24:09;;;;;;;0.00;0.00;;;;;;;16.55;63.87;101155.03;4973057;28;20212;-79
2023/09/14 10:26:38;;;;;;;0.00;0.00;;;;;;;16.46;63.90;101162.53;4974913;28;20236;-78
2023/09/14 10:29:07;;;;;;;0.00;0.00;;;;;;;16.14;64.37;101144.69;4981744;28;20664;-79
2023/09/14 10:31:35;;;;;;;0.00;0.00;;;;;;;16.32;64.53;101160.00;4972932;28;20182;-79
2023/09/14 10:34:01;;;;;;;0.00;0.00;;;;;;;16.55;66.00;101190.88;4982647;28;20205;-79
2023/09/14 10:36:30;;;;;;;0.50;0.50;;;;;;;16.85;66.00;101202.75;4975255;28;20181;-80
2023/09/14 10:38:59;;;;;;;0.00;0.00;;;;;;;17.08;65.43;101194.16;4971627;28;20208;-80
2023/09/14 10:41:25;;;;;;;0.00;0.00;;;;;;;17.20;64.56;101178.44;4974129;28;20216;-80
2023/09/14 10:43:51;;;;;;;0.00;0.00;;;;;;;17.29;63.34;101156.25;4974044;28;20284;-80
2023/09/14 10:46:22;;;;;;;0.00;0.00;;;;;;;17.37;63.82;101176.69;4973866;28;20692;-80
2023/09/14 10:48:47;;;;;;;0.00;0.00;;;;;;;17.32;62.56;101152.00;4973616;28;20268;-79
2023/09/14 10:51:13;;;;;;;0.43;0.43;;;;;;;17.35;63.17;101151.31;4972515;28;20220;-79
2023/09/14 10:53:41;;;;;;;0.00;0.00;;;;;;;17.27;62.05;101139.22;4972322;28;20589;-79
2023/09/14 10:56:22;;;;;;;0.00;0.00;;;;;;;17.34;61.37;101133.94;4974012;28;20192;-80
2023/09/14 10:58:52;;;;;;;0.00;0.00;;;;;;;17.51;62.20;101158.66;4971932;28;20200;-79
2023/09/14 11:01:25;;;;;;;0.00;0.00;;;;;;;17.55;60.33;101125.63;4972122;28;20228;-79
2023/09/14 11:04:17;;;;;;;0.10;0.10;;;;;;;17.77;61.02;101136.28;4973516;28;20217;-79
2023/09/14 11:06:46;;;;;;;0.00;0.00;;;;;;;17.62;59.71;101100.97;4973519;28;20196;-79
2023/09/14 11:09:14;;;;;;;1.90;0.47;;;;;;;17.79;60.34;101131.25;4971278;28;20208;-78
2023/09/14 11:11:41;;;;;;;0.07;0.07;;;;;;;17.99;60.50;101135.06;4973141;28;20192;-79
2023/09/14 11:14:09;;;;;;;17.50;1.73;;;;;;;17.99;61.25;101140.59;4972258;28;20301;-79
2023/09/14 11:16:43;;;;;;;1.50;0.20;;;;;;;17.65;60.68;101099.47;4972438;28;20193;-79